createdAt,value
2023-02-17T00:01:30.246Z,10.10
2023-02-17T00:04:00.090Z,10.10
2023-02-17T00:06:30.324Z,10.10
2023-02-17T00:08:58.049Z,10.10
2023-02-17T00:11:28.299Z,10.10
2023-02-17T00:13:56.401Z,10.20
2023-02-17T00:16:26.142Z,10.10
2023-02-17T00:18:55.227Z,10.10
2023-02-17T00:21:25.951Z,10.10
2023-02-17T00:23:53.353Z,10.10
2023-02-17T00:26:21.246Z,10.10
2023-02-17T00:28:48.865Z,10.10
2023-02-17T00:31:22.932Z,10.10
2023-02-17T00:33:49.965Z,10.10
2023-02-17T00:36:21.531Z,10.20
2023-02-17T00:38:49.304Z,10.10
2023-02-17T00:41:19.417Z,10.10
2023-02-17T00:43:47.179Z,10.10
2023-02-17T00:46:15.003Z,10.10
2023-02-17T00:48:41.840Z,10.20
2023-02-17T00:51:09.017Z,10.20
2023-02-17T00:53:36.183Z,10.10
2023-02-17T00:56:04.325Z,10.20
2023-02-17T00:58:31.117Z,10.20
2023-02-17T01:00:58.629Z,10.20
2023-02-17T01:03:26.751Z,10.20
2023-02-17T01:05:54.551Z,10.20
2023-02-17T01:08:22.672Z,10.30
2023-02-17T01:10:50.580Z,10.20
2023-02-17T01:13:19.116Z,10.20
2023-02-17T01:15:53.514Z,10.30
2023-02-17T01:18:23.472Z,10.20
2023-02-17T01:20:50.404Z,10.20
2023-02-17T01:23:17.400Z,10.20
2023-02-17T01:25:46.806Z,10.30
2023-02-17T01:28:20.117Z,10.30
2023-02-17T01:30:50.249Z,10.20
2023-02-17T01:33:19.658Z,10.20
2023-02-17T01:35:46.326Z,10.20
2023-02-17T01:38:13.289Z,10.30
2023-02-17T01:40:47.373Z,10.30
2023-02-17T01:43:17.696Z,10.30
2023-02-17T01:45:56.380Z,10.30
2023-02-17T01:48:50.393Z,10.30
2023-02-17T01:51:21.793Z,10.30
2023-02-17T01:53:56.815Z,10.40
2023-02-17T01:56:25.294Z,10.40
2023-02-17T01:59:01.148Z,10.40
2023-02-17T02:01:29.968Z,10.40
2023-02-17T02:03:56.817Z,10.40
2023-02-17T02:06:27.303Z,10.40
2023-02-17T02:09:02.994Z,10.40
2023-02-17T02:11:30.130Z,10.40
2023-02-17T02:14:00.042Z,10.50
2023-02-17T02:16:40.459Z,10.50
2023-02-17T02:19:43.603Z,10.50
2023-02-17T02:22:33.952Z,10.40
2023-02-17T02:25:15.010Z,10.40
2023-02-17T02:28:19.092Z,10.40
2023-02-17T02:30:57.128Z,10.40
2023-02-17T02:33:45.117Z,10.40
2023-02-17T02:36:24.091Z,10.40
2023-02-17T02:39:06.415Z,10.40
2023-02-17T02:41:55.959Z,10.40
2023-02-17T02:44:25.046Z,10.50
2023-02-17T02:47:01.929Z,10.50
2023-02-17T02:49:33.563Z,10.50
2023-02-17T02:52:32.978Z,10.50
2023-02-17T02:55:15.604Z,10.50
2023-02-17T02:58:09.247Z,10.50
2023-02-17T03:00:48.905Z,10.40
2023-02-17T03:03:18.914Z,10.50
2023-02-17T03:05:55.049Z,10.50
2023-02-17T03:08:48.929Z,10.50
2023-02-17T03:11:32.167Z,10.40
2023-02-17T03:14:11.627Z,10.50
2023-02-17T03:16:40.363Z,10.50
2023-02-17T03:19:11.474Z,10.50
2023-02-17T03:21:46.510Z,10.60
2023-02-17T03:24:15.596Z,10.60
2023-02-17T03:26:44.462Z,10.60
2023-02-17T03:29:13.431Z,10.60
2023-02-17T03:31:41.336Z,10.70
2023-02-17T03:34:08.421Z,10.60
2023-02-17T03:36:35.133Z,10.60
2023-02-17T03:39:01.922Z,10.60
2023-02-17T03:41:28.619Z,10.60
2023-02-17T03:43:55.585Z,10.50
2023-02-17T03:46:22.312Z,10.60
2023-02-17T03:48:51.333Z,10.50
2023-02-17T03:51:23.636Z,10.50
2023-02-17T03:53:50.633Z,10.50
2023-02-17T03:56:20.369Z,10.50
2023-02-17T03:58:49.655Z,10.50
2023-02-17T04:01:16.381Z,10.50
2023-02-17T04:03:43.302Z,10.50
2023-02-17T04:06:13.406Z,10.50
2023-02-17T04:08:40.797Z,10.40
2023-02-17T04:11:09.657Z,10.40
2023-02-17T04:13:39.884Z,10.40
2023-02-17T04:16:08.127Z,10.40
2023-02-17T04:18:37.866Z,10.40
2023-02-17T04:21:05.809Z,10.30
2023-02-17T04:23:33.986Z,10.30
2023-02-17T04:26:03.400Z,10.30
2023-02-17T04:28:30.224Z,10.40
2023-02-17T04:30:58.645Z,10.30
2023-02-17T04:33:25.856Z,10.30
2023-02-17T04:35:59.299Z,10.30
2023-02-17T04:38:32.949Z,10.30
2023-02-17T04:41:00.926Z,10.30
2023-02-17T04:43:28.898Z,10.40
2023-02-17T04:45:58.647Z,10.40
2023-02-17T04:48:28.532Z,10.40
2023-02-17T04:50:57.504Z,10.40
2023-02-17T04:53:26.777Z,10.40
2023-02-17T04:55:53.594Z,10.40
2023-02-17T04:58:21.108Z,10.40
2023-02-17T05:00:49.580Z,10.40
2023-02-17T05:03:19.616Z,10.30
2023-02-17T05:05:46.668Z,10.30
2023-02-17T05:08:13.352Z,10.40
2023-02-17T05:10:42.246Z,10.30
2023-02-17T05:13:08.998Z,10.30
2023-02-17T05:15:35.813Z,10.30
2023-02-17T05:18:02.861Z,10.30
2023-02-17T05:20:29.662Z,10.30
2023-02-17T05:22:56.336Z,10.30
2023-02-17T05:25:23.014Z,10.30
2023-02-17T05:27:49.677Z,10.30
2023-02-17T05:30:16.490Z,10.40
2023-02-17T05:32:43.249Z,10.40
2023-02-17T05:35:09.981Z,10.30
2023-02-17T05:37:39.066Z,10.30
2023-02-17T05:40:09.527Z,10.30
2023-02-17T05:42:36.218Z,10.30
2023-02-17T05:45:05.381Z,10.20
2023-02-17T05:47:32.054Z,10.30
2023-02-17T05:49:58.702Z,10.30
2023-02-17T05:52:25.340Z,10.30
2023-02-17T05:54:52.101Z,10.40
2023-02-17T05:57:18.803Z,10.30
2023-02-17T05:59:45.441Z,10.40
2023-02-17T06:02:12.093Z,10.30
2023-02-17T06:04:38.878Z,10.40
2023-02-17T06:07:07.945Z,10.40
2023-02-17T06:09:37.016Z,10.40
2023-02-17T06:12:04.210Z,10.40
2023-02-17T06:14:33.256Z,10.40
2023-02-17T06:17:01.119Z,10.40
2023-02-17T06:19:28.380Z,10.40
2023-02-17T06:21:56.979Z,10.40
2023-02-17T06:24:24.787Z,10.50
2023-02-17T06:26:51.480Z,10.40
2023-02-17T06:29:18.166Z,10.40
2023-02-17T06:31:47.117Z,10.40
2023-02-17T06:34:16.353Z,10.40
2023-02-17T06:36:43.016Z,10.40
2023-02-17T06:39:12.074Z,10.40
2023-02-17T06:41:38.774Z,10.50
2023-02-17T06:44:05.573Z,10.50
2023-02-17T06:46:32.232Z,10.40
2023-02-17T06:49:00.076Z,10.50
2023-02-17T06:51:27.207Z,10.50
2023-02-17T06:53:56.276Z,10.50
2023-02-17T06:56:27.562Z,10.50
2023-02-17T06:58:54.248Z,10.50
2023-02-17T07:01:23.547Z,10.50
2023-02-17T07:03:50.256Z,10.50
2023-02-17T07:06:19.480Z,10.50
2023-02-17T07:08:46.349Z,10.60
2023-02-17T07:11:14.694Z,10.60
2023-02-17T07:13:41.963Z,10.50
2023-02-17T07:16:12.726Z,10.60
2023-02-17T07:18:39.912Z,10.50
2023-02-17T07:21:09.870Z,10.60
2023-02-17T07:23:38.019Z,10.60
2023-02-17T07:26:09.562Z,10.60
2023-02-17T07:28:40.078Z,10.60
2023-02-17T07:31:12.479Z,10.60
2023-02-17T07:33:42.422Z,10.60
2023-02-17T07:36:14.104Z,10.70
2023-02-17T07:38:41.653Z,10.70
2023-02-17T07:41:13.892Z,10.70
2023-02-17T07:43:41.181Z,10.70
2023-02-17T07:46:10.017Z,10.70
2023-02-17T07:48:39.888Z,10.80
2023-02-17T07:51:07.549Z,10.80
2023-02-17T07:53:34.844Z,10.80
2023-02-17T07:56:06.865Z,10.90
2023-02-17T07:58:35.214Z,11.00
2023-02-17T08:01:17.374Z,11.00
2023-02-17T08:03:45.000Z,11.10
2023-02-17T08:06:16.727Z,11.10
2023-02-17T08:09:01.999Z,11.20
2023-02-17T08:11:50.106Z,11.30
2023-02-17T08:14:17.323Z,11.30
2023-02-17T08:16:46.313Z,11.40
2023-02-17T08:19:13.179Z,11.40
2023-02-17T08:21:40.012Z,11.50
2023-02-17T08:24:09.048Z,11.60
2023-02-17T08:26:36.153Z,11.60
2023-02-17T08:29:03.193Z,11.80
2023-02-17T08:31:34.489Z,11.80
2023-02-17T08:34:03.927Z,11.90
2023-02-17T08:36:31.117Z,11.80
2023-02-17T08:38:58.508Z,11.90
2023-02-17T08:41:34.629Z,12.00
2023-02-17T08:44:03.983Z,12.20
2023-02-17T08:46:30.917Z,12.00
2023-02-17T08:49:00.124Z,12.00
2023-02-17T08:51:29.282Z,12.00
2023-02-17T08:54:02.607Z,12.20
2023-02-17T08:56:32.129Z,12.50
2023-02-17T09:28:45.251Z,13.60
2023-02-17T09:31:17.061Z,13.80
2023-02-17T09:33:46.659Z,13.70
2023-02-17T09:36:15.727Z,13.80
2023-02-17T09:38:45.545Z,13.80
2023-02-17T09:41:15.203Z,13.90
2023-02-17T09:43:44.946Z,13.70
2023-02-17T09:46:19.109Z,13.70
2023-02-17T09:48:50.838Z,13.80
2023-02-17T09:54:08.292Z,13.90
2023-02-17T09:56:39.750Z,14.30
2023-02-17T10:01:36.714Z,14.40
2023-02-17T10:11:52.440Z,14.60
2023-02-17T10:14:27.283Z,14.90
2023-02-17T10:17:02.420Z,15.00
2023-02-17T10:19:36.379Z,15.00
2023-02-17T10:22:07.140Z,14.90
2023-02-17T10:24:33.861Z,15.10
2023-02-17T10:27:02.638Z,15.20
2023-02-17T10:29:58.432Z,15.40
2023-02-17T10:32:27.324Z,15.60
2023-02-17T10:35:13.094Z,15.70
2023-02-17T10:40:20.581Z,15.80
2023-02-17T10:42:53.192Z,15.90
2023-02-17T10:48:14.538Z,16.00
2023-02-17T10:50:45.735Z,16.10
2023-02-17T10:53:25.383Z,16.20
2023-02-17T10:56:05.662Z,16.10
2023-02-17T10:58:44.018Z,16.10
2023-02-17T11:01:11.934Z,16.10
2023-02-17T11:03:43.148Z,16.10
2023-02-17T11:06:23.324Z,16.30
2023-02-17T11:08:56.284Z,16.50
2023-02-17T11:11:34.508Z,16.60
2023-02-17T11:14:17.997Z,16.60
2023-02-17T11:16:48.178Z,16.60
2023-02-17T11:19:29.571Z,16.70
2023-02-17T11:21:58.762Z,16.70
2023-02-17T11:24:27.556Z,16.60
2023-02-17T11:27:05.723Z,16.70
2023-02-17T11:29:34.105Z,16.80
2023-02-17T11:32:08.721Z,16.90
2023-02-17T11:34:39.122Z,16.90
2023-02-17T11:37:14.038Z,16.80
2023-02-17T11:39:47.848Z,16.90
2023-02-17T11:42:29.665Z,16.90
2023-02-17T11:45:17.304Z,17.00
2023-02-17T11:47:46.933Z,17.10
2023-02-17T11:50:41.684Z,17.00
2023-02-17T11:53:11.497Z,16.90
2023-02-17T11:56:06.459Z,16.80
2023-02-17T11:59:35.045Z,16.90
2023-02-17T12:02:06.869Z,16.80
2023-02-17T12:04:44.320Z,16.70
2023-02-17T12:07:28.123Z,16.70
2023-02-17T12:10:11.990Z,16.90
2023-02-17T12:13:21.537Z,16.90
2023-02-17T12:16:07.180Z,16.90
2023-02-17T12:18:43.019Z,17.10
2023-02-17T12:21:11.188Z,17.00
2023-02-17T12:23:59.347Z,17.10
2023-02-17T12:26:44.054Z,17.00
2023-02-17T12:29:22.471Z,17.10
2023-02-17T12:32:16.765Z,17.00
2023-02-17T12:34:58.952Z,17.10
2023-02-17T12:37:33.751Z,17.10
2023-02-17T12:40:14.733Z,17.10
2023-02-17T12:42:57.843Z,17.10
2023-02-17T12:45:39.672Z,17.00
2023-02-17T12:48:26.877Z,17.00
2023-02-17T12:51:13.795Z,17.10
2023-02-17T12:53:54.968Z,17.10
2023-02-17T12:56:28.426Z,17.20
2023-02-17T12:59:00.748Z,17.20
2023-02-17T13:01:31.960Z,17.20
2023-02-17T13:04:02.708Z,17.30
2023-02-17T13:06:43.142Z,17.30
2023-02-17T13:09:28.443Z,17.30
2023-02-17T13:12:06.691Z,17.30
2023-02-17T13:14:50.583Z,17.40
2023-02-17T13:17:37.926Z,17.50
2023-02-17T13:20:10.754Z,17.50
2023-02-17T13:22:42.137Z,17.60
2023-02-17T13:25:16.564Z,17.80
2023-02-17T13:27:43.342Z,17.70
2023-02-17T13:30:21.957Z,17.90
2023-02-17T13:33:03.104Z,17.90
2023-02-17T13:35:35.616Z,18.00
2023-02-17T13:38:02.574Z,18.00
2023-02-17T13:40:29.541Z,18.00
2023-02-17T13:42:57.640Z,18.10
2023-02-17T13:45:35.302Z,18.20
2023-02-17T13:48:12.722Z,18.20
2023-02-17T13:50:46.043Z,18.20
2023-02-17T13:53:37.851Z,18.20
2023-02-17T13:56:12.506Z,18.20
2023-02-17T13:58:42.327Z,18.10
2023-02-17T14:01:27.125Z,18.00
2023-02-17T14:04:00.126Z,17.90
2023-02-17T14:06:37.349Z,17.80
2023-02-17T14:09:19.999Z,17.80
2023-02-17T14:11:46.884Z,17.80
2023-02-17T14:14:13.879Z,17.80
2023-02-17T14:16:44.164Z,17.80
2023-02-17T14:19:19.951Z,17.80
2023-02-17T14:22:05.474Z,17.80
2023-02-17T14:24:33.539Z,17.90
2023-02-17T14:27:08.655Z,17.80
2023-02-17T14:29:46.830Z,17.80
2023-02-17T14:32:48.562Z,17.70
2023-02-17T14:35:17.601Z,17.90
2023-02-17T14:37:44.307Z,17.80
2023-02-17T14:40:25.782Z,17.70
2023-02-17T14:42:54.724Z,17.50
2023-02-17T14:45:23.517Z,17.40
2023-02-17T14:47:52.449Z,17.40
2023-02-17T14:50:21.310Z,17.40
2023-02-17T14:52:52.411Z,17.50
2023-02-17T14:55:29.431Z,17.70
2023-02-17T14:57:58.300Z,18.20
2023-02-17T15:00:27.444Z,18.30
2023-02-17T15:02:57.160Z,18.00
2023-02-17T15:05:24.172Z,18.10
2023-02-17T15:07:53.537Z,18.00
2023-02-17T15:10:28.526Z,18.30
2023-02-17T15:12:55.905Z,18.10
2023-02-17T15:15:24.844Z,18.20
2023-02-17T15:17:51.540Z,18.00
2023-02-17T15:20:20.554Z,17.90
2023-02-17T15:22:47.246Z,17.70
2023-02-17T15:25:22.235Z,17.50
2023-02-17T15:27:53.766Z,17.40
2023-02-17T15:30:21.362Z,17.20
2023-02-17T15:32:48.285Z,17.00
2023-02-17T15:35:25.210Z,16.80
2023-02-17T15:37:52.789Z,16.60
2023-02-17T15:40:26.057Z,16.50
2023-02-17T15:43:00.134Z,16.40
2023-02-17T15:45:26.879Z,16.30
2023-02-17T15:48:06.255Z,16.20
2023-02-17T15:50:32.985Z,16.20
2023-02-17T15:52:59.717Z,16.20
2023-02-17T15:55:28.257Z,16.10
2023-02-17T15:57:58.354Z,16.00
2023-02-17T16:00:26.388Z,16.10
2023-02-17T16:02:56.647Z,16.00
2023-02-17T16:05:25.691Z,16.00
2023-02-17T16:07:54.995Z,15.90
2023-02-17T16:10:24.184Z,15.90
2023-02-17T16:12:52.095Z,15.90
2023-02-17T16:15:24.802Z,15.80
2023-02-17T16:17:55.610Z,15.80
2023-02-17T16:20:34.726Z,15.80
2023-02-17T16:23:02.684Z,15.70
2023-02-17T16:25:29.645Z,15.70
2023-02-17T16:27:59.983Z,15.60
2023-02-17T16:30:33.601Z,15.70
2023-02-17T16:33:03.014Z,15.50
2023-02-17T16:35:33.442Z,15.50
2023-02-17T16:38:07.287Z,15.40
2023-02-17T16:40:36.304Z,15.30
2023-02-17T16:43:05.615Z,15.30
2023-02-17T16:45:34.341Z,15.20
2023-02-17T16:48:01.968Z,15.10
2023-02-17T16:50:35.295Z,15.10
2023-02-17T16:53:08.638Z,15.10
2023-02-17T16:55:36.511Z,15.00
2023-02-17T16:58:04.482Z,14.90
2023-02-17T17:00:33.073Z,14.90
2023-02-17T17:03:00.036Z,14.80
2023-02-17T17:05:31.381Z,14.70
2023-02-17T17:08:00.258Z,14.70
2023-02-17T17:10:30.661Z,14.70
2023-02-17T17:13:00.622Z,14.60
2023-02-17T17:15:28.176Z,14.50
2023-02-17T17:18:01.325Z,14.40
2023-02-17T17:20:34.153Z,14.30
2023-02-17T17:23:02.961Z,14.40
2023-02-17T17:25:30.766Z,14.30
2023-02-17T17:27:58.003Z,14.20
2023-02-17T17:30:30.648Z,14.20
2023-02-17T17:32:59.901Z,14.10
2023-02-17T17:35:29.953Z,14.00
2023-02-17T17:37:58.641Z,13.90
2023-02-17T17:40:31.336Z,13.80
2023-02-17T17:42:58.084Z,13.60
2023-02-17T17:45:25.497Z,13.60
2023-02-17T17:47:52.276Z,13.40
2023-02-17T17:50:22.697Z,13.30
2023-02-17T17:52:52.451Z,13.20
2023-02-17T17:55:19.307Z,13.20
2023-02-17T17:57:46.098Z,13.10
2023-02-17T18:00:15.389Z,13.20
2023-02-17T18:02:44.517Z,13.10
2023-02-17T18:05:13.395Z,13.20
2023-02-17T18:07:43.984Z,13.10
2023-02-17T18:10:13.176Z,13.10
2023-02-17T18:12:47.547Z,13.20
2023-02-17T18:15:17.167Z,13.10
2023-02-17T18:17:46.818Z,13.20
2023-02-17T18:20:16.115Z,13.10
2023-02-17T18:22:45.380Z,13.20
2023-02-17T18:25:12.613Z,13.20
2023-02-17T18:27:44.391Z,13.10
2023-02-17T18:30:14.870Z,13.20
2023-02-17T18:32:42.876Z,13.10
2023-02-17T18:35:13.556Z,13.10
2023-02-17T18:37:42.717Z,13.10
2023-02-17T18:40:12.556Z,13.10
2023-02-17T18:42:40.717Z,13.20
2023-02-17T18:45:08.878Z,13.20
2023-02-17T18:47:35.703Z,13.10
2023-02-17T18:50:04.585Z,13.10
2023-02-17T18:52:31.229Z,13.10
2023-02-17T18:54:57.918Z,13.10
2023-02-17T18:57:24.813Z,13.10
2023-02-17T18:59:51.584Z,13.10
2023-02-17T19:02:18.389Z,13.10
2023-02-17T19:04:45.118Z,13.10
2023-02-17T19:07:11.933Z,13.10
2023-02-17T19:09:44.329Z,13.10
2023-02-17T19:12:13.661Z,13.20
2023-02-17T19:14:41.097Z,13.10
2023-02-17T19:17:09.439Z,13.10
2023-02-17T19:19:40.786Z,13.10
2023-02-17T19:22:09.470Z,13.00
2023-02-17T19:24:37.354Z,13.10
2023-02-17T19:27:05.241Z,13.10
2023-02-17T19:29:32.228Z,13.10
2023-02-17T19:32:00.247Z,13.10
2023-02-17T19:34:27.946Z,13.10
2023-02-17T19:36:55.338Z,13.00
2023-02-17T19:39:22.183Z,13.10
2023-02-17T19:41:48.985Z,13.10
2023-02-17T19:44:15.671Z,13.00
2023-02-17T19:46:44.666Z,12.90
2023-02-17T19:49:11.386Z,13.00
2023-02-17T19:51:40.721Z,12.90
2023-02-17T19:54:07.401Z,13.00
2023-02-17T19:56:36.236Z,13.00
2023-02-17T19:59:02.964Z,12.90
2023-02-17T20:01:34.628Z,13.00
2023-02-17T20:04:04.575Z,12.90
2023-02-17T20:06:38.127Z,13.00
2023-02-17T20:09:10.569Z,13.00
2023-02-17T20:11:37.688Z,12.90
2023-02-17T20:14:04.960Z,12.90
2023-02-17T20:16:34.380Z,12.90
2023-02-17T20:19:04.317Z,13.00
2023-02-17T20:21:32.775Z,12.90
2023-02-17T20:23:59.902Z,12.90
2023-02-17T20:26:32.944Z,12.90
2023-02-17T20:29:00.560Z,13.00
2023-02-17T20:31:28.073Z,13.00
2023-02-17T20:33:57.548Z,13.00
2023-02-17T20:36:24.999Z,13.00
2023-02-17T20:38:51.995Z,12.90
2023-02-17T20:41:21.078Z,12.90
2023-02-17T20:43:48.896Z,12.90
2023-02-17T20:46:26.621Z,12.90
2023-02-17T20:48:56.680Z,12.80
2023-02-17T20:51:23.958Z,12.80
2023-02-17T20:53:53.244Z,12.80
2023-02-17T20:56:22.763Z,12.80
2023-02-17T20:58:50.828Z,12.70
2023-02-17T21:01:17.904Z,12.80
2023-02-17T21:03:47.151Z,12.80
2023-02-17T21:06:28.589Z,12.70
2023-02-17T21:09:01.252Z,12.70
2023-02-17T21:11:28.837Z,12.70
2023-02-17T21:13:56.079Z,12.60
2023-02-17T21:16:26.203Z,12.60
2023-02-17T21:18:53.417Z,12.60
2023-02-17T21:21:20.670Z,12.70
2023-02-17T21:23:50.052Z,12.60
2023-02-17T21:26:17.650Z,12.60
2023-02-17T21:28:47.717Z,12.60
2023-02-17T21:31:16.388Z,12.60
2023-02-17T21:33:43.390Z,12.60
2023-02-17T21:36:15.348Z,12.60
2023-02-17T21:38:42.476Z,12.60
2023-02-17T21:41:17.781Z,12.60
2023-02-17T21:44:02.970Z,12.50
2023-02-17T21:46:37.348Z,12.50
2023-02-17T21:49:04.159Z,12.50
2023-02-17T21:51:31.017Z,12.50
2023-02-17T21:53:59.162Z,12.40
2023-02-17T21:56:26.591Z,12.50
2023-02-17T21:58:54.954Z,12.40
2023-02-17T22:01:27.027Z,12.40
2023-02-17T22:03:57.675Z,12.40
2023-02-17T22:06:25.962Z,12.40
2023-02-17T22:08:58.518Z,12.40
2023-02-17T22:11:30.925Z,12.40
2023-02-17T22:14:10.156Z,12.40
2023-02-17T22:16:38.224Z,12.40
2023-02-17T22:19:06.945Z,12.40
2023-02-17T22:21:34.054Z,12.40
2023-02-17T22:24:02.131Z,12.50
2023-02-17T22:26:29.737Z,12.40
2023-02-17T22:28:57.125Z,12.50
2023-02-17T22:31:26.366Z,12.40
2023-02-17T22:33:53.645Z,12.40
2023-02-17T22:36:27.349Z,12.40
2023-02-17T22:38:59.762Z,12.30
2023-02-17T22:41:26.443Z,12.30
2023-02-17T22:43:55.792Z,12.30
2023-02-17T22:46:24.450Z,12.30
2023-02-17T22:48:59.975Z,12.30
2023-02-17T22:51:34.252Z,12.30
2023-02-17T22:54:03.319Z,12.30
2023-02-17T22:56:32.985Z,12.30
2023-02-17T22:59:04.295Z,12.30
2023-02-17T23:01:33.318Z,12.30
2023-02-17T23:04:02.836Z,12.30
2023-02-17T23:06:35.890Z,12.30
2023-02-17T23:09:06.822Z,12.30
2023-02-17T23:11:52.246Z,12.20
2023-02-17T23:14:21.948Z,12.20
2023-02-17T23:16:48.789Z,12.20
2023-02-17T23:19:23.006Z,12.20
2023-02-17T23:21:53.878Z,12.20
2023-02-17T23:24:23.808Z,12.20
2023-02-17T23:26:51.443Z,12.10
2023-02-17T23:29:19.022Z,12.10
2023-02-17T23:31:48.052Z,12.20
2023-02-17T23:34:18.209Z,12.20
2023-02-17T23:36:46.368Z,12.20
2023-02-17T23:39:14.701Z,12.20
2023-02-17T23:41:46.446Z,12.20
2023-02-17T23:44:16.124Z,12.20
2023-02-17T23:46:45.917Z,12.10
2023-02-17T23:49:15.035Z,12.10
2023-02-17T23:51:47.144Z,12.20
2023-02-17T23:54:14.622Z,12.20
2023-02-17T23:56:41.543Z,12.20
2023-02-17T23:59:11.601Z,12.20
